Time;durP1;ratioP1;P1;durP2;ratioP2;P2;SDS_P1;SDS_P2;PMS_P1;PMS_P2;Temp;Humidity;BMP_temperature;BMP_pressure;BME280_temperature;BME280_humidity;BME280_pressure;Samples;Min_cycle;Max_cycle;Signal;HPM_P1;HPM_P2
2022/10/29 00:00:58;;;;;;;14.43;4.32;;;;;;;11.01;100.00;99724.91;5007171;28;20058;-76
2022/10/29 00:03:25;;;;;;;8.05;4.18;;;;;;;10.86;100.00;99722.88;5005848;28;20060;-76
2022/10/29 00:05:56;;;;;;;8.43;3.47;;;;;;;10.95;100.00;99719.13;5009793;28;20050;-76
2022/10/29 00:08:23;;;;;;;14.82;3.97;;;;;;;11.08;100.00;99744.94;5011138;28;20056;-76
2022/10/29 00:10:49;;;;;;;7.25;3.65;;;;;;;11.06;100.00;99730.66;5009199;28;20049;-76
2022/10/29 00:13:17;;;;;;;14.23;3.30;;;;;;;10.94;100.00;99703.84;5009514;28;20057;-76
2022/10/29 00:15:44;;;;;;;10.43;3.42;;;;;;;10.80;100.00;99710.00;5009797;28;20053;-76
2022/10/29 00:18:10;;;;;;;8.57;4.07;;;;;;;10.77;100.00;99723.94;5010620;28;20488;-76
2022/10/29 00:20:37;;;;;;;7.10;2.92;;;;;;;10.59;100.00;99719.53;5010482;28;20489;-78
2022/10/29 00:23:04;;;;;;;11.48;3.67;;;;;;;10.62;100.00;99719.19;5008580;28;20141;-78
2022/10/29 00:25:30;;;;;;;10.32;3.80;;;;;;;10.59;100.00;99707.81;5001847;28;20046;-77
2022/10/29 00:27:57;;;;;;;13.55;3.13;;;;;;;10.74;100.00;99732.44;5008501;28;20058;-76
2022/10/29 00:30:25;;;;;;;8.43;3.42;;;;;;;10.63;100.00;99707.28;5010876;28;20050;-78
2022/10/29 00:32:51;;;;;;;13.23;4.35;;;;;;;10.73;100.00;99715.25;5008647;28;20053;-76
2022/10/29 00:35:18;;;;;;;10.23;3.70;;;;;;;10.71;100.00;99722.75;5007809;28;20049;-76
2022/10/29 00:37:44;;;;;;;6.53;3.65;;;;;;;10.73;100.00;99714.41;5010050;28;20054;-76
2022/10/29 00:40:12;;;;;;;10.77;4.38;;;;;;;10.75;100.00;99713.22;5007969;28;20054;-76
2022/10/29 00:42:38;;;;;;;15.18;5.00;;;;;;;10.76;100.00;99714.94;5008154;28;20060;-76
2022/10/29 00:45:06;;;;;;;10.30;4.30;;;;;;;10.80;100.00;99718.97;5009099;28;20045;-76
2022/10/29 00:47:37;;;;;;;14.50;4.88;;;;;;;10.59;100.00;99694.22;5008772;28;20052;-76
2022/10/29 00:50:08;;;;;;;16.95;4.32;;;;;;;10.60;100.00;99696.75;5010415;28;20061;-76
2022/10/29 00:52:38;;;;;;;14.65;4.82;;;;;;;10.62;100.00;99719.19;5008650;28;20049;-77
2022/10/29 00:55:09;;;;;;;15.18;4.95;;;;;;;10.59;100.00;99688.78;5009554;28;20049;-76
2022/10/29 00:57:39;;;;;;;14.43;4.72;;;;;;;10.45;100.00;99691.16;5008451;28;20414;-76
2022/10/29 01:00:06;;;;;;;12.82;4.32;;;;;;;10.57;100.00;99726.19;5008632;28;20058;-76
2022/10/29 01:02:35;;;;;;;10.75;4.03;;;;;;;10.57;100.00;99707.97;5008095;28;20056;-76
2022/10/29 01:05:03;;;;;;;11.23;4.97;;;;;;;10.60;100.00;99704.91;5009410;28;20370;-76
2022/10/29 01:07:30;;;;;;;9.52;3.90;;;;;;;10.61;100.00;99714.78;5009626;28;20528;-76
2022/10/29 01:09:57;;;;;;;10.30;4.10;;;;;;;10.57;100.00;99713.41;5009193;28;20132;-76
2022/10/29 01:12:37;;;;;;;11.40;4.90;;;;;;;10.42;100.00;99706.97;5009472;28;20062;-76
2022/10/29 01:15:13;;;;;;;10.95;4.57;;;;;;;10.44;100.00;99713.94;5007793;28;20050;-76
2022/10/29 01:17:52;;;;;;;10.63;3.80;;;;;;;10.30;100.00;99720.03;5009448;28;20054;-76
2022/10/29 01:20:41;;;;;;;8.95;4.07;;;;;;;10.29;100.00;99718.31;5009435;28;20052;-76
2022/10/29 01:23:27;;;;;;;14.90;4.13;;;;;;;10.11;100.00;99713.03;5007929;28;20053;-76
2022/10/29 01:26:16;;;;;;;13.70;3.88;;;;;;;10.24;100.00;99716.13;5008379;28;20507;-76
2022/10/29 01:29:01;;;;;;;8.45;3.80;;;;;;;10.13;100.00;99710.16;5009911;28;20046;-76
2022/10/29 01:31:33;;;;;;;9.75;3.72;;;;;;;9.97;100.00;99694.72;5007228;28;20061;-76
2022/10/29 01:34:06;;;;;;;8.32;3.83;;;;;;;10.02;100.00;99697.75;5009000;28;20050;-76
2022/10/29 01:36:39;;;;;;;6.35;3.40;;;;;;;10.18;100.00;99683.34;5046254;28;20052;-76
2022/10/29 01:39:09;;;;;;;7.68;3.60;;;;;;;10.16;100.00;99680.81;5006912;28;20053;-76
2022/10/29 01:41:46;;;;;;;13.15;3.85;;;;;;;10.14;100.00;99704.56;5007661;28;20056;-76
2022/10/29 01:44:22;;;;;;;10.05;4.40;;;;;;;10.23;100.00;99714.41;5007830;28;20053;-76
2022/10/29 01:46:55;;;;;;;15.60;3.85;;;;;;;10.13;100.00;99699.28;5008391;28;20050;-76
2022/10/29 01:49:28;;;;;;;16.83;3.65;;;;;;;10.00;100.00;99686.22;5006288;28;20050;-76
2022/10/29 01:51:56;;;;;;;12.65;5.00;;;;;;;10.18;100.00;99716.78;5008922;28;20153;-76
2022/10/29 01:54:23;;;;;;;15.90;4.10;;;;;;;10.28;100.00;99716.63;5006667;28;20098;-76
2022/10/29 01:56:54;;;;;;;10.43;3.97;;;;;;;9.96;100.00;99682.13;5002055;28;20053;-76
2022/10/29 01:59:22;;;;;;;10.40;3.90;;;;;;;10.00;100.00;99697.09;5007626;28;20045;-76
2022/10/29 02:02:02;;;;;;;9.73;3.67;;;;;;;9.93;100.00;99683.31;5009172;28;20053;-76
2022/10/29 02:04:46;;;;;;;11.18;4.60;;;;;;;10.11;100.00;99707.63;5006017;28;20048;-76
2022/10/29 02:07:25;;;;;;;10.32;3.92;;;;;;;10.10;100.00;99698.63;5014811;28;20413;-76
2022/10/29 02:09:58;;;;;;;12.50;4.35;;;;;;;10.08;100.00;99695.22;5021362;28;20060;-76
2022/10/29 02:12:29;;;;;;;11.13;4.30;;;;;;;10.13;100.00;99683.00;5008780;28;20053;-76
2022/10/29 02:15:02;;;;;;;13.20;6.85;;;;;;;10.14;100.00;99682.81;5007089;28;20629;-76
2022/10/29 02:17:32;;;;;;;8.85;3.35;;;;;;;10.09;100.00;99687.94;5009233;28;20441;-76
2022/10/29 02:20:02;;;;;;;9.63;3.22;;;;;;;9.91;100.00;99688.06;5006821;28;20057;-76
2022/10/29 02:22:28;;;;;;;12.50;3.40;;;;;;;9.82;100.00;99670.91;5007484;28;20045;-76
2022/10/29 02:24:55;;;;;;;11.35;3.58;;;;;;;9.74;100.00;99692.63;5006561;28;20495;-76
2022/10/29 02:27:21;;;;;;;11.57;4.72;;;;;;;9.72;100.00;99679.19;5008668;28;20416;-76
2022/10/29 02:29:48;;;;;;;9.40;3.50;;;;;;;9.73;100.00;99648.34;5038508;28;20050;-76
2022/10/29 02:32:14;;;;;;;13.15;3.92;;;;;;;9.72;100.00;99657.47;5007874;28;20053;-76
2022/10/29 02:34:42;;;;;;;12.10;3.70;;;;;;;9.72;100.00;99633.03;5007473;28;20054;-76
2022/10/29 02:37:09;;;;;;;8.57;3.97;;;;;;;9.78;100.00;99631.53;5006742;28;20046;-76
2022/10/29 02:39:35;;;;;;;10.05;3.45;;;;;;;9.74;100.00;99657.34;5003396;28;20060;-76
2022/10/29 02:42:02;;;;;;;10.70;4.43;;;;;;;9.84;100.00;99662.59;5004193;28;20069;-76
2022/10/29 02:44:29;;;;;;;8.80;3.35;;;;;;;9.84;100.00;99677.03;5006597;28;20489;-76
2022/10/29 02:46:55;;;;;;;8.95;3.72;;;;;;;9.70;100.00;99643.25;5006736;28;20057;-76
2022/10/29 02:49:22;;;;;;;9.43;3.60;;;;;;;9.63;100.00;99639.47;5008764;28;20133;-76
2022/10/29 02:51:50;;;;;;;12.50;3.58;;;;;;;9.79;100.00;99663.09;5007701;28;20061;-76
2022/10/29 02:54:16;;;;;;;7.63;3.50;;;;;;;9.79;100.00;99663.09;5006062;28;20054;-76
2022/10/29 02:56:43;;;;;;;12.20;4.20;;;;;;;9.70;100.00;99645.13;5007509;28;20136;-76
2022/10/29 02:59:09;;;;;;;8.43;3.50;;;;;;;9.68;100.00;99664.28;5006515;28;20060;-76
2022/10/29 03:01:36;;;;;;;8.23;3.97;;;;;;;9.65;100.00;99647.47;5007192;28;20080;-76
2022/10/29 03:04:02;;;;;;;8.48;3.38;;;;;;;9.71;100.00;99652.22;5007136;28;20511;-76
2022/10/29 03:06:29;;;;;;;10.45;3.58;;;;;;;9.84;100.00;99657.16;5007811;28;20054;-76
2022/10/29 03:08:57;;;;;;;10.73;3.53;;;;;;;9.71;100.00;99657.66;5007037;28;20060;-76
2022/10/29 03:11:23;;;;;;;11.63;4.15;;;;;;;9.63;100.00;99663.09;5005169;28;20053;-75
2022/10/29 03:13:50;;;;;;;5.40;3.00;;;;;;;9.52;100.00;99640.66;5006739;28;20057;-76
2022/10/29 03:16:17;;;;;;;8.20;3.22;;;;;;;9.56;100.00;99652.88;5008234;28;20046;-76
2022/10/29 03:18:43;;;;;;;13.38;4.35;;;;;;;9.62;100.00;99678.53;5007154;28;20501;-76
2022/10/29 03:21:10;;;;;;;12.15;3.58;;;;;;;9.41;100.00;99653.69;5007643;28;20064;-76
2022/10/29 03:23:36;;;;;;;9.05;3.35;;;;;;;9.59;100.00;99664.41;5005602;28;20058;-76
2022/10/29 03:26:04;;;;;;;12.57;3.42;;;;;;;9.63;100.00;99660.38;5007126;28;20075;-76
2022/10/29 03:28:31;;;;;;;8.95;3.20;;;;;;;9.67;100.00;99672.59;5003263;28;20489;-76
2022/10/29 03:30:58;;;;;;;14.77;3.35;;;;;;;9.50;100.00;99661.69;5007719;28;20060;-76
2022/10/29 03:33:25;;;;;;;7.78;3.72;;;;;;;9.39;100.00;99665.56;5005863;28;20064;-76
2022/10/29 03:35:56;;;;;;;8.38;3.22;;;;;;;9.48;100.00;99665.59;5007674;28;20057;-77
2022/10/29 03:38:23;;;;;;;13.82;3.78;;;;;;;9.25;100.00;99654.50;5004298;28;20054;-76
2022/10/29 03:40:50;;;;;;;8.93;3.90;;;;;;;9.17;100.00;99642.59;5006485;28;20070;-76
2022/10/29 03:43:18;;;;;;;10.68;3.45;;;;;;;9.21;100.00;99634.97;5005261;28;20049;-76
2022/10/29 03:45:44;;;;;;;10.80;4.07;;;;;;;9.42;100.00;99656.25;5035122;28;20051;-76
2022/10/29 03:48:11;;;;;;;10.02;3.35;;;;;;;9.47;100.00;99648.47;5007068;28;20137;-76
2022/10/29 03:50:38;;;;;;;11.32;3.50;;;;;;;9.41;100.00;99642.84;5007985;28;20491;-76
2022/10/29 03:53:04;;;;;;;18.48;3.22;;;;;;;9.50;100.00;99664.41;5005350;28;20050;-76
2022/10/29 03:55:31;;;;;;;7.95;3.55;;;;;;;9.32;100.00;99637.41;5007544;28;20050;-76
2022/10/29 03:57:57;;;;;;;11.63;3.53;;;;;;;9.29;100.00;99628.72;5006149;28;20053;-76
2022/10/29 04:00:25;;;;;;;6.05;3.47;;;;;;;9.39;100.00;99637.56;5006212;28;20133;-76
2022/10/29 04:02:52;;;;;;;9.52;3.13;;;;;;;9.59;100.00;99669.84;5005683;28;20061;-76
2022/10/29 04:05:18;;;;;;;14.57;3.70;;;;;;;9.67;100.00;99664.44;5006495;28;20057;-77
2022/10/29 04:07:45;;;;;;;9.00;3.55;;;;;;;9.64;100.00;99635.75;5007412;28;20061;-76
2022/10/29 04:10:11;;;;;;;16.38;4.47;;;;;;;9.70;100.00;99620.69;5006248;28;20060;-76
2022/10/29 04:12:38;;;;;;;7.28;3.53;;;;;;;9.77;100.00;99631.69;5006309;28;20060;-76
2022/10/29 04:15:06;;;;;;;10.65;4.10;;;;;;;9.68;100.00;99625.41;5005644;28;20060;-76
2022/10/29 04:17:33;;;;;;;7.50;3.40;;;;;;;9.87;100.00;99657.66;5003688;28;20121;-76
2022/10/29 04:20:00;;;;;;;7.78;3.22;;;;;;;9.58;100.00;99633.72;5006518;28;20060;-76
2022/10/29 04:22:27;;;;;;;12.55;3.85;;;;;;;9.63;100.00;99653.06;5005234;28;20050;-76
2022/10/29 04:24:53;;;;;;;6.47;3.42;;;;;;;9.70;100.00;99674.97;5007011;28;20061;-76
2022/10/29 04:27:20;;;;;;;7.38;3.20;;;;;;;9.57;100.00;99638.31;5007004;28;20050;-76
2022/10/29 04:29:46;;;;;;;12.27;3.95;;;;;;;9.86;100.00;99661.44;5005753;28;20060;-76
2022/10/29 04:32:13;;;;;;;7.88;3.72;;;;;;;9.61;100.00;99651.56;5005007;28;20065;-76
2022/10/29 04:34:41;;;;;;;11.57;3.47;;;;;;;9.68;100.00;99671.56;5013871;28;20046;-76
2022/10/29 04:37:07;;;;;;;10.30;3.55;;;;;;;9.70;100.00;99650.53;5006205;28;20552;-76
2022/10/29 04:39:34;;;;;;;8.23;3.38;;;;;;;9.65;100.00;99648.34;5003982;28;20052;-76
2022/10/29 04:42:01;;;;;;;8.77;3.33;;;;;;;9.61;100.00;99655.09;5006517;28;20390;-76
2022/10/29 04:44:27;;;;;;;11.68;3.10;;;;;;;9.50;100.00;99642.69;5006562;28;20061;-76
2022/10/29 04:46:54;;;;;;;12.95;4.05;;;;;;;9.56;100.00;99643.91;5005465;28;20148;-76
2022/10/29 04:49:20;;;;;;;10.90;3.60;;;;;;;9.70;100.00;99651.38;5006267;28;20049;-76
2022/10/29 04:51:48;;;;;;;9.88;3.97;;;;;;;9.70;100.00;99647.81;5009778;28;20472;-76
2022/10/29 04:54:15;;;;;;;14.05;3.22;;;;;;;9.73;100.00;99680.91;5007864;28;20120;-76
2022/10/29 04:56:42;;;;;;;11.65;3.30;;;;;;;9.65;100.00;99666.47;5010321;28;20489;-79
2022/10/29 04:59:08;;;;;;;8.90;3.22;;;;;;;9.68;100.00;99669.72;5009449;28;20057;-76
2022/10/29 05:01:35;;;;;;;10.38;3.17;;;;;;;9.43;100.00;99655.22;5009402;28;20561;-76
2022/10/29 05:04:01;;;;;;;10.43;3.40;;;;;;;9.46;100.00;99681.19;5007622;28;20056;-76
2022/10/29 05:06:28;;;;;;;9.95;3.10;;;;;;;9.48;100.00;99676.44;5095966;28;20046;-76
2022/10/29 05:08:56;;;;;;;9.48;3.58;;;;;;;9.37;100.00;99645.03;5009316;28;20052;-76
2022/10/29 05:11:22;;;;;;;8.63;2.92;;;;;;;9.45;100.00;99677.63;5009338;28;20052;-76
2022/10/29 05:13:49;;;;;;;11.48;3.13;;;;;;;9.52;100.00;99670.50;5008235;28;20137;-76
2022/10/29 05:16:15;;;;;;;13.18;3.50;;;;;;;9.38;100.00;99666.59;5008453;28;20050;-76
2022/10/29 05:18:42;;;;;;;12.23;4.20;;;;;;;9.34;100.00;99664.38;5008041;28;20400;-76
2022/10/29 05:21:08;;;;;;;12.15;3.45;;;;;;;9.17;100.00;99648.03;5009648;28;20053;-76
2022/10/29 05:23:35;;;;;;;8.68;3.20;;;;;;;9.29;100.00;99650.44;5008740;28;20064;-76
2022/10/29 05:26:03;;;;;;;8.23;3.03;;;;;;;9.21;100.00;99649.41;5009288;28;20042;-76
2022/10/29 05:28:30;;;;;;;9.82;3.15;;;;;;;9.29;100.00;99656.72;5008849;28;20055;-76
2022/10/29 05:31:00;;;;;;;9.20;4.25;;;;;;;9.33;100.00;99674.38;5008248;28;20050;-76
2022/10/29 05:33:27;;;;;;;5.88;3.38;;;;;;;9.17;100.00;99650.75;5008291;28;20053;-76
2022/10/29 05:35:53;;;;;;;14.63;3.17;;;;;;;9.06;100.00;99640.19;5009607;28;20050;-76
2022/10/29 05:38:20;;;;;;;13.13;4.13;;;;;;;9.13;100.00;99662.94;5045035;28;20050;-77
2022/10/29 05:40:47;;;;;;;20.02;3.50;;;;;;;9.10;100.00;99638.84;5009581;28;20493;-77
2022/10/29 05:43:16;;;;;;;9.35;3.08;;;;;;;9.13;100.00;99654.78;5007070;28;20048;-76
2022/10/29 05:45:43;;;;;;;12.43;3.50;;;;;;;9.10;100.00;99662.41;5008703;28;20053;-76
2022/10/29 05:48:10;;;;;;;6.50;3.08;;;;;;;8.84;100.00;99639.75;5010601;28;20061;-76
2022/10/29 05:50:37;;;;;;;11.63;2.97;;;;;;;8.83;100.00;99643.47;5003185;28;20054;-76
2022/10/29 05:53:05;;;;;;;7.80;2.72;;;;;;;8.88;100.00;99645.69;5006921;28;20045;-77
2022/10/29 05:55:34;;;;;;;7.35;3.08;;;;;;;8.84;100.00;99645.19;5003647;28;20509;-76
2022/10/29 05:58:02;;;;;;;6.03;2.97;;;;;;;8.71;100.00;99625.78;5030086;28;20055;-78
2022/10/29 06:00:33;;;;;;;9.52;2.90;;;;;;;8.76;100.00;99637.03;5008823;28;20588;-78
2022/10/29 06:03:00;;;;;;;8.25;3.20;;;;;;;8.88;100.00;99652.97;5004897;28;20117;-77
2022/10/29 06:05:26;;;;;;;9.30;3.20;;;;;;;9.04;100.00;99662.03;5007343;28;20053;-76
2022/10/29 06:07:54;;;;;;;12.68;3.50;;;;;;;8.97;100.00;99661.00;5008444;28;20052;-76
2022/10/29 06:10:20;;;;;;;12.20;3.42;;;;;;;8.81;100.00;99636.53;5009004;28;20058;-76
2022/10/29 06:12:47;;;;;;;10.57;3.10;;;;;;;9.01;100.00;99658.81;5037090;28;20047;-76
2022/10/29 06:15:13;;;;;;;11.63;3.30;;;;;;;8.88;100.00;99634.00;5019815;28;20133;-76
2022/10/29 06:17:42;;;;;;;8.25;2.88;;;;;;;8.99;100.00;99660.84;5009115;28;20064;-76
2022/10/29 06:20:10;;;;;;;12.35;3.63;;;;;;;8.86;100.00;99666.69;5008960;28;20050;-76
2022/10/29 06:22:37;;;;;;;7.55;3.10;;;;;;;8.75;100.00;99645.31;5007664;28;20204;-76
2022/10/29 06:25:04;;;;;;;7.57;3.33;;;;;;;8.92;100.00;99662.50;5008869;28;20053;-76
2022/10/29 06:27:31;;;;;;;7.75;2.83;;;;;;;8.93;100.00;99672.34;5058766;28;20072;-76
2022/10/29 06:29:57;;;;;;;7.75;3.00;;;;;;;8.82;100.00;99638.22;5008211;28;20054;-76
2022/10/29 06:32:24;;;;;;;9.38;3.25;;;;;;;8.81;100.00;99641.94;5005919;28;20106;-77
2022/10/29 06:34:52;;;;;;;8.82;2.83;;;;;;;9.07;100.00;99668.16;5007735;28;20050;-76
2022/10/29 06:37:19;;;;;;;10.05;3.30;;;;;;;8.95;100.00;99654.03;5006546;28;20060;-77
2022/10/29 06:39:45;;;;;;;14.55;3.67;;;;;;;8.91;100.00;99652.66;5005969;28;20061;-77
2022/10/29 06:42:12;;;;;;;7.85;3.58;;;;;;;9.07;100.00;99669.00;5004176;28;20045;-77
2022/10/29 06:44:38;;;;;;;9.77;3.20;;;;;;;8.96;100.00;99647.63;4999766;28;20049;-76
2022/10/29 06:47:05;;;;;;;6.80;3.10;;;;;;;9.10;100.00;99676.81;5006665;28;20050;-77
2022/10/29 06:49:31;;;;;;;5.72;3.40;;;;;;;9.07;100.00;99647.31;5007757;28;20042;-76
2022/10/29 06:51:59;;;;;;;10.13;4.45;;;;;;;9.27;100.00;99682.31;5005532;28;20490;-77
2022/10/29 06:54:26;;;;;;;8.18;3.47;;;;;;;9.12;100.00;99657.66;5007438;28;20053;-77
2022/10/29 06:56:52;;;;;;;9.77;3.90;;;;;;;9.24;100.00;99663.66;5006252;28;20056;-76
2022/10/29 06:59:19;;;;;;;13.48;3.25;;;;;;;9.12;100.00;99646.81;5004763;28;20072;-76
2022/10/29 07:01:45;;;;;;;13.98;3.55;;;;;;;9.15;100.00;99646.50;5006853;28;20053;-77
2022/10/29 07:04:12;;;;;;;13.20;3.35;;;;;;;9.27;100.00;99666.03;5004921;28;20042;-77
2022/10/29 07:06:39;;;;;;;6.45;3.67;;;;;;;9.35;100.00;99676.94;5006087;28;20046;-77
2022/10/29 07:09:07;;;;;;;10.40;3.22;;;;;;;9.42;100.00;99677.94;5007240;28;20061;-77
2022/10/29 07:11:33;;;;;;;14.40;3.63;;;;;;;9.48;100.00;99679.16;5005994;28;20472;-76
2022/10/29 07:14:00;;;;;;;6.47;3.03;;;;;;;9.40;100.00;99642.00;5004468;28;20042;-76
2022/10/29 07:16:27;;;;;;;10.60;3.70;;;;;;;9.53;100.00;99666.78;5005661;28;20421;-77
2022/10/29 07:18:53;;;;;;;11.45;4.10;;;;;;;9.71;100.00;99669.38;5005994;28;20500;-77
2022/10/29 07:21:20;;;;;;;14.18;6.20;;;;;;;9.62;100.00;99666.81;5004224;28;20125;-77
2022/10/29 07:23:47;;;;;;;10.98;4.30;;;;;;;9.71;100.00;99669.38;5005448;28;20471;-77
2022/10/29 07:26:15;;;;;;;8.82;4.30;;;;;;;9.85;100.00;99673.28;5004817;28;20132;-76
2022/10/29 07:28:41;;;;;;;13.50;5.55;;;;;;;9.94;100.00;99659.75;5010652;28;20049;-78
2022/10/29 07:31:09;;;;;;;8.43;3.75;;;;;;;9.90;100.00;99653.78;5026275;28;20144;-78
2022/10/29 07:33:36;;;;;;;19.65;3.97;;;;;;;10.06;100.00;99690.97;5004402;28;20058;-77
2022/10/29 07:36:02;;;;;;;12.13;3.55;;;;;;;9.95;100.00;99653.28;5006070;28;20044;-77
2022/10/29 07:38:29;;;;;;;10.73;3.58;;;;;;;10.05;100.00;99649.38;5005891;28;20056;-77
2022/10/29 07:40:55;;;;;;;13.82;3.95;;;;;;;10.12;100.00;99660.41;5008073;28;20054;-77
2022/10/29 07:43:23;;;;;;;11.70;4.03;;;;;;;10.35;100.00;99684.22;5006892;28;20064;-77
2022/10/29 07:45:51;;;;;;;16.80;4.80;;;;;;;10.34;100.00;99668.94;5008039;28;20050;-77
2022/10/29 07:48:18;;;;;;;15.50;4.57;;;;;;;10.60;100.00;99693.22;5007523;28;20564;-77
2022/10/29 07:50:44;;;;;;;8.02;4.53;;;;;;;10.60;100.00;99668.75;5006549;28;20052;-77
2022/10/29 07:53:11;;;;;;;13.13;4.45;;;;;;;10.82;100.00;99686.19;5049478;28;20129;-76
2022/10/29 07:55:38;;;;;;;9.13;4.05;;;;;;;10.95;100.00;99691.09;5008053;28;20054;-77
2022/10/29 07:58:07;;;;;;;16.25;4.00;;;;;;;11.03;100.00;99701.94;5007718;28;20077;-77
2022/10/29 08:00:36;;;;;;;10.90;4.88;;;;;;;10.86;100.00;99671.22;5007555;28;20053;-77
2022/10/29 08:03:03;;;;;;;15.30;5.28;;;;;;;10.90;100.00;99682.56;5007033;28;20057;-76
2022/10/29 08:05:31;;;;;;;13.68;5.00;;;;;;;10.97;100.00;99669.97;5007100;28;20054;-76
2022/10/29 08:07:58;;;;;;;8.65;4.40;;;;;;;11.09;100.00;99679.47;5004356;28;20478;-77
2022/10/29 08:10:26;;;;;;;13.63;6.13;;;;;;;11.13;100.00;99671.81;5007375;28;20064;-77
2022/10/29 08:12:53;;;;;;;15.38;5.32;;;;;;;11.36;100.00;99687.34;5006912;28;20054;-77
2022/10/29 08:15:20;;;;;;;10.25;5.13;;;;;;;11.40;100.00;99686.00;5007555;28;20058;-77
2022/10/29 08:17:49;;;;;;;13.52;4.20;;;;;;;11.39;100.00;99681.56;5007673;28;20050;-77
2022/10/29 08:20:17;;;;;;;18.58;5.05;;;;;;;11.59;100.00;99688.28;5007409;28;20095;-77
2022/10/29 08:22:43;;;;;;;13.75;4.63;;;;;;;11.72;100.00;99676.78;5005565;28;20577;-77
2022/10/29 08:25:11;;;;;;;12.85;4.40;;;;;;;11.75;100.00;99675.56;5056740;28;20076;-77
2022/10/29 08:27:37;;;;;;;7.80;3.75;;;;;;;11.94;100.00;99679.72;5011349;28;20042;-77
2022/10/29 08:30:05;;;;;;;15.43;5.10;;;;;;;12.07;100.00;99684.56;5010764;28;20050;-77
2022/10/29 08:32:31;;;;;;;25.15;5.50;;;;;;;12.08;100.00;99665.31;4990819;28;20056;-77
2022/10/29 08:34:59;;;;;;;17.63;5.70;;;;;;;12.30;100.00;99677.25;4991325;28;20054;-76
2022/10/29 08:37:26;;;;;;;15.98;5.00;;;;;;;12.28;100.00;99652.03;4999828;28;20042;-76
2022/10/29 08:39:52;;;;;;;15.23;5.18;;;;;;;12.48;100.00;99659.69;5007666;28;20068;-77
2022/10/29 08:42:30;;;;;;;10.30;5.22;;;;;;;12.44;100.00;99653.75;5009619;28;20080;-77
2022/10/29 08:45:10;;;;;;;18.30;5.78;;;;;;;12.56;100.00;99660.44;5010660;28;20054;-77
2022/10/29 08:47:51;;;;;;;15.15;5.20;;;;;;;12.73;100.00;99668.47;5010758;28;20413;-77
2022/10/29 08:50:25;;;;;;;14.27;5.60;;;;;;;12.89;100.00;99671.03;5010673;28;20054;-77
2022/10/29 08:52:52;;;;;;;10.13;4.00;;;;;;;12.95;100.00;99663.97;5009333;28;20054;-77
2022/10/29 08:55:22;;;;;;;16.33;4.18;;;;;;;13.05;100.00;99680.91;5019148;28;20076;-77
2022/10/29 08:57:52;;;;;;;13.75;4.47;;;;;;;13.18;100.00;99682.13;5039009;28;20046;-77
2022/10/29 09:00:21;;;;;;;16.42;4.45;;;;;;;13.22;100.00;99688.91;5010476;28;20137;-77
2022/10/29 09:02:52;;;;;;;11.37;4.40;;;;;;;13.17;100.00;99675.84;5009818;28;20131;-77
2022/10/29 09:05:24;;;;;;;10.18;4.97;;;;;;;13.32;100.00;99686.72;5011091;28;20273;-77
2022/10/29 09:08:00;;;;;;;11.60;4.57;;;;;;;13.26;100.00;99671.09;5015420;28;20050;-77
2022/10/29 09:10:33;;;;;;;13.63;5.03;;;;;;;13.29;100.00;99678.91;5008726;28;20052;-77
2022/10/29 09:13:17;;;;;;;8.93;4.50;;;;;;;13.25;100.00;99681.19;5009289;28;20049;-77
2022/10/29 09:16:06;;;;;;;15.98;4.68;;;;;;;13.13;100.00;99660.88;5010290;28;20054;-77
2022/10/29 09:18:56;;;;;;;18.10;5.40;;;;;;;13.33;100.00;99673.94;5010154;28;20054;-77
2022/10/29 09:21:32;;;;;;;27.67;12.57;;;;;;;13.37;100.00;99658.88;5008299;28;20058;-77
2022/10/29 09:24:10;;;;;;;15.52;7.03;;;;;;;13.53;100.00;99677.78;5009085;28;20060;-78
2022/10/29 09:26:48;;;;;;;14.68;4.82;;;;;;;13.56;100.00;99658.25;5032046;28;20039;-77
2022/10/29 09:29:28;;;;;;;11.07;4.38;;;;;;;13.73;100.00;99664.34;5019909;28;20067;-77
2022/10/29 09:31:58;;;;;;;;;;;;;;;13.90;100.00;99672.31;5010684;28;20057;-78
2022/10/29 09:34:30;;;;;;;9.70;4.20;;;;;;;13.96;100.00;99653.25;5008883;28;19925;-77
2022/10/29 09:36:58;;;;;;;9.30;3.80;;;;;;;14.14;100.00;99666.44;5009507;28;20451;-77
2022/10/29 09:39:32;;;;;;;11.38;4.82;;;;;;;14.18;100.00;99650.50;5008147;28;20500;-78
2022/10/29 09:42:01;;;;;;;21.52;5.57;;;;;;;14.23;100.00;99630.78;5009658;28;20050;-77
2022/10/29 09:44:37;;;;;;;13.88;4.40;;;;;;;14.39;100.00;99633.22;5007818;28;20052;-77
2022/10/29 09:47:11;;;;;;;9.02;4.00;;;;;;;14.84;100.00;99649.34;5009558;28;20052;-77
2022/10/29 09:49:51;;;;;;;13.02;4.88;;;;;;;15.24;100.00;99648.75;5009362;28;20042;-77
2022/10/29 09:52:22;;;;;;;13.63;3.30;;;;;;;15.54;100.00;99644.63;5008756;28;20128;-78
2022/10/29 09:54:52;;;;;;;14.88;4.40;;;;;;;15.82;100.00;99635.47;5009730;28;20054;-78
2022/10/29 09:57:22;;;;;;;12.68;4.70;;;;;;;16.18;100.00;99623.25;5009643;28;20046;-78
2022/10/29 09:59:53;;;;;;;11.05;3.75;;;;;;;16.31;100.00;99619.69;5051182;28;20050;-78
2022/10/29 10:02:26;;;;;;;17.08;3.85;;;;;;;16.53;100.00;99634.03;5008214;28;20066;-78
2022/10/29 10:04:57;;;;;;;14.88;3.65;;;;;;;16.73;100.00;99645.00;5009341;28;20064;-78
2022/10/29 10:07:25;;;;;;;14.82;3.40;;;;;;;16.64;98.11;99625.16;5009122;28;20046;-78
2022/10/29 10:09:54;;;;;;;11.60;3.95;;;;;;;16.84;98.27;99640.75;5009488;28;20484;-78
2022/10/29 10:12:24;;;;;;;12.90;3.10;;;;;;;16.90;96.59;99650.06;5008027;28;20412;-78
2022/10/29 10:15:02;;;;;;;9.27;2.50;;;;;;;16.88;95.11;99641.22;5008156;28;20058;-78
2022/10/29 10:17:49;;;;;;;14.45;3.67;;;;;;;16.73;95.86;99613.97;5009059;28;20042;-78
2022/10/29 10:20:27;;;;;;;15.98;3.42;;;;;;;16.89;94.42;99623.66;5009092;28;20053;-78
2022/10/29 10:22:53;;;;;;;12.73;3.22;;;;;;;17.11;98.29;99646.22;5008279;28;20139;-78
2022/10/29 10:25:32;;;;;;;12.18;3.92;;;;;;;17.24;94.25;99639.84;5009471;28;20133;-78
2022/10/29 10:28:03;;;;;;;13.00;3.20;;;;;;;17.22;94.92;99630.94;5004916;28;20052;-78
2022/10/29 10:30:30;;;;;;;16.15;4.75;;;;;;;17.30;96.30;99626.06;5009152;28;20054;-78
2022/10/29 10:33:10;;;;;;;13.80;3.47;;;;;;;17.46;95.96;99638.47;5044520;28;20391;-78
2022/10/29 10:35:39;;;;;;;14.57;3.38;;;;;;;17.65;94.23;99631.16;5067931;28;20044;-78
2022/10/29 10:38:10;;;;;;;13.13;4.18;;;;;;;17.77;91.96;99633.25;5111979;28;20116;-78
2022/10/29 10:40:37;;;;;;;9.60;4.50;;;;;;;17.94;91.58;99631.66;5089247;28;20050;-78
2022/10/29 10:43:04;;;;;;;12.50;3.42;;;;;;;17.92;91.99;99605.47;5008084;28;20045;-78
2022/10/29 10:45:36;;;;;;;15.60;3.38;;;;;;;18.03;89.46;99602.81;5008384;28;20505;-78
2022/10/29 10:48:08;;;;;;;10.27;3.45;;;;;;;18.16;90.12;99604.63;5007403;28;20099;-78
2022/10/29 10:50:37;;;;;;;13.60;2.92;;;;;;;18.16;90.00;99601.03;5008829;28;20110;-78
2022/10/29 10:53:07;;;;;;;11.00;3.33;;;;;;;18.11;91.16;99585.22;5093248;28;20061;-78
2022/10/29 10:55:37;;;;;;;20.90;3.08;;;;;;;18.20;89.42;99581.13;5049337;28;20125;-78
2022/10/29 10:58:10;;;;;;;12.25;5.05;;;;;;;18.36;87.06;99589.84;5007460;28;20038;-78
2022/10/29 11:00:43;;;;;;;21.17;3.35;;;;;;;18.42;86.65;99582.63;5001789;28;20054;-78
2022/10/29 11:03:16;;;;;;;7.47;2.60;;;;;;;18.58;88.73;99582.88;5007867;28;20054;-78
2022/10/29 11:05:51;;;;;;;9.85;3.25;;;;;;;18.57;85.92;99594.94;5007610;28;20493;-78
2022/10/29 11:08:22;;;;;;;15.00;3.65;;;;;;;18.56;87.12;99585.03;5078158;28;20052;-78
2022/10/29 11:10:54;;;;;;;11.45;2.75;;;;;;;18.60;85.90;99571.63;5009118;28;20050;-78
2022/10/29 11:13:23;;;;;;;18.63;3.70;;;;;;;18.87;86.32;99591.50;5006524;28;20053;-78
2022/10/29 11:15:55;;;;;;;16.98;3.50;;;;;;;18.79;86.59;99564.22;5008496;28;20561;-78
2022/10/29 11:18:25;;;;;;;10.80;3.97;;;;;;;18.92;84.98;99574.28;5008588;28;20413;-78
2022/10/29 11:21:04;;;;;;;8.30;3.17;;;;;;;19.05;86.58;99581.56;5008094;28;20054;-78
2022/10/29 11:23:41;;;;;;;8.65;3.00;;;;;;;19.06;85.33;99575.81;5006160;28;20718;-77
2022/10/29 11:26:13;;;;;;;12.27;3.05;;;;;;;19.17;85.73;99582.44;5003762;28;20061;-78
2022/10/29 11:28:46;;;;;;;6.85;2.72;;;;;;;19.24;83.71;99569.44;5008319;28;20050;-78
2022/10/29 11:31:20;;;;;;;9.43;3.15;;;;;;;19.26;86.05;99553.50;5008176;28;20077;-78
2022/10/29 11:33:57;;;;;;;9.23;2.92;;;;;;;19.42;85.37;99574.06;5007761;28;20129;-78